Time;durP1;ratioP1;P1;durP2;ratioP2;P2;SDS_P1;SDS_P2;PMS_P1;PMS_P2;Temp;Humidity;BMP_temperature;BMP_pressure;BME280_temperature;BME280_humidity;BME280_pressure;Samples;Min_cycle;Max_cycle;Signal;HPM_P1;HPM_P2
2022/08/13 00:02:14;;;;;;;18.90;12.05;;;;;;;;;;6262618;28;20139;-60
2022/08/13 00:05:15;;;;;;;18.92;12.30;;;;;;;;;;6259608;28;20059;-60
2022/08/13 00:08:15;;;;;;;18.37;12.13;;;;;;;;;;6261220;28;20053;-60
2022/08/13 00:12:56;;;;;;;20.60;12.40;;;;;;;;;;6265518;28;20041;-60
2022/08/13 00:14:40;;;;;;;19.75;12.65;;;;;;;;;;6256755;28;20048;-60
2022/08/13 00:17:45;;;;;;;22.15;12.57;;;;;;;;;;6259468;28;20090;-60
2022/08/13 00:20:52;;;;;;;22.48;13.55;;;;;;;;;;6259151;28;20410;-60
2022/08/13 00:23:54;;;;;;;19.95;13.02;;;;;;;;;;6256661;28;20055;-60
2022/08/13 00:26:59;;;;;;;19.52;12.35;;;;;;;;;;6261376;28;20040;-60
2022/08/13 00:30:01;;;;;;;21.15;12.95;;;;;;;;;;6263260;28;20128;-60
2022/08/13 00:33:03;;;;;;;20.45;13.55;;;;;;;;;;6260829;28;20048;-60
2022/08/13 00:36:04;;;;;;;21.92;11.88;;;;;;;;;;6260100;28;20738;-60
2022/08/13 00:39:07;;;;;;;23.07;12.80;;;;;;;;;;6258334;28;20053;-60
2022/08/13 00:42:08;;;;;;;21.25;13.25;;;;;;;;;;6261020;28;20037;-59
2022/08/13 00:45:10;;;;;;;20.40;13.20;;;;;;;;;;6257965;28;20052;-59
2022/08/13 00:51:32;;;;;;;19.85;12.40;;;;;;;;;;6257565;28;20089;-60
2022/08/13 00:54:34;;;;;;;20.25;12.93;;;;;;;;;;6254213;28;21343;-59
2022/08/13 00:57:36;;;;;;;22.40;13.30;;;;;;;;;;6261946;28;20558;-60
2022/08/13 01:00:37;;;;;;;20.83;13.07;;;;;;;;;;6255307;28;20174;-59
2022/08/13 01:03:38;;;;;;;20.30;12.97;;;;;;;;;;6260881;28;20048;-59
2022/08/13 01:06:39;;;;;;;24.50;12.90;;;;;;;;;;6262335;28;20092;-59
2022/08/13 01:09:41;;;;;;;19.27;12.55;;;;;;;;;;6261580;28;20055;-59
2022/08/13 01:12:47;;;;;;;20.20;12.40;;;;;;;;;;6258330;28;20044;-59
2022/08/13 01:15:49;;;;;;;19.90;12.65;;;;;;;;;;6261791;28;20049;-60
2022/08/13 01:18:51;;;;;;;21.27;13.35;;;;;;;;;;6260578;28;21201;-60
2022/08/13 01:21:52;;;;;;;23.17;13.18;;;;;;;;;;6261104;28;20097;-59
2022/08/13 01:24:52;;;;;;;22.57;14.13;;;;;;;;;;6258811;28;20045;-60
2022/08/13 01:27:53;;;;;;;23.60;13.30;;;;;;;;;;6262536;28;20547;-60
2022/08/13 01:31:04;;;;;;;23.03;14.13;;;;;;;;;;6259675;28;20396;-59
2022/08/13 01:34:05;;;;;;;21.42;13.20;;;;;;;;;;6258900;28;20159;-59
2022/08/13 01:37:06;;;;;;;20.57;13.03;;;;;;;;;;6258869;28;20159;-60
2022/08/13 01:40:07;;;;;;;23.67;12.83;;;;;;;;;;6259620;28;20045;-60
2022/08/13 01:43:08;;;;;;;21.73;12.93;;;;;;;;;;6255215;28;20090;-60
2022/08/13 01:46:11;;;;;;;18.87;12.13;;;;;;;;;;6253839;28;20989;-60
2022/08/13 01:52:33;;;;;;;21.27;13.55;;;;;;;;;;6257260;28;20144;-58
2022/08/13 01:55:54;;;;;;;22.33;13.40;;;;;;;;;;6261165;28;20041;-57
2022/08/13 01:58:58;;;;;;;22.83;13.63;;;;;;;;;;6259558;28;20492;-60
2022/08/13 02:01:59;;;;;;;19.80;12.52;;;;;;;;;;6259009;28;20060;-60
2022/08/13 02:04:59;;;;;;;19.43;12.63;;;;;;;;;;6260756;28;20040;-60
2022/08/13 02:08:03;;;;;;;22.77;12.13;;;;;;;;;;6257547;28;20041;-59
2022/08/13 02:11:03;;;;;;;21.33;13.07;;;;;;;;;;6259401;28;20037;-59
2022/08/13 02:14:05;;;;;;;19.83;12.67;;;;;;;;;;6252988;28;20056;-58
2022/08/13 02:17:24;;;;;;;20.48;12.85;;;;;;;;;;6259768;28;20087;-59
2022/08/13 02:20:26;;;;;;;21.73;13.18;;;;;;;;;;6257567;28;20128;-59
2022/08/13 02:23:31;;;;;;;21.23;13.07;;;;;;;;;;6258326;28;20817;-59
2022/08/13 02:26:32;;;;;;;24.02;14.20;;;;;;;;;;6261458;28;20067;-59
2022/08/13 02:29:33;;;;;;;19.38;12.88;;;;;;;;;;6260684;28;20059;-60
2022/08/13 02:32:35;;;;;;;22.77;13.70;;;;;;;;;;6256869;28;20067;-59
2022/08/13 02:35:36;;;;;;;;;;;;;;;;;;6255082;28;20518;-60
2022/08/13 02:38:37;;;;;;;21.33;12.85;;;;;;;;;;6254362;28;20011;-59
2022/08/13 02:41:38;;;;;;;21.43;14.00;;;;;;;;;;6259903;28;20418;-60
2022/08/13 02:44:39;;;;;;;22.70;14.00;;;;;;;;;;6258690;28;20049;-59
2022/08/13 02:47:40;;;;;;;25.90;15.07;;;;;;;;;;6257087;28;20053;-59
2022/08/13 02:50:45;;;;;;;27.08;14.77;;;;;;;;;;6259190;28;20045;-59
2022/08/13 02:53:47;;;;;;;28.73;15.13;;;;;;;;;;6257410;28;20056;-58
2022/08/13 02:56:48;;;;;;;29.60;14.90;;;;;;;;;;6261347;28;20055;-59
2022/08/13 02:59:48;;;;;;;28.43;14.50;;;;;;;;;;6255556;28;20049;-59
2022/08/13 03:02:49;;;;;;;33.37;15.87;;;;;;;;;;6254385;28;20049;-58
2022/08/13 03:05:49;;;;;;;30.08;15.63;;;;;;;;;;6257808;28;20059;-59
2022/08/13 03:08:52;;;;;;;31.40;15.85;;;;;;;;;;6257804;28;20373;-58
2022/08/13 03:11:53;;;;;;;34.13;17.00;;;;;;;;;;6257738;28;20466;-58
2022/08/13 03:14:55;;;;;;;35.23;17.67;;;;;;;;;;6258373;28;20048;-59
2022/08/13 03:17:55;;;;;;;34.95;17.23;;;;;;;;;;6257869;28;20056;-59
2022/08/13 03:20:58;;;;;;;32.50;16.43;;;;;;;;;;6255023;28;20052;-60
2022/08/13 03:23:59;;;;;;;36.55;16.88;;;;;;;;;;6257149;28;20589;-59
2022/08/13 03:27:01;;;;;;;35.92;17.80;;;;;;;;;;6259367;28;20041;-60
2022/08/13 03:30:02;;;;;;;38.60;16.85;;;;;;;;;;6266674;28;20064;-59
2022/08/13 03:33:13;;;;;;;39.63;18.20;;;;;;;;;;6283252;28;20036;-59
2022/08/13 03:36:14;;;;;;;40.47;18.05;;;;;;;;;;6285324;28;20059;-59
2022/08/13 03:39:15;;;;;;;47.40;18.73;;;;;;;;;;6282876;28;20152;-59
2022/08/13 03:42:15;;;;;;;48.93;18.97;;;;;;;;;;6279916;28;20048;-59
2022/08/13 03:45:19;;;;;;;42.17;17.67;;;;;;;;;;6288632;28;20045;-59
2022/08/13 03:48:19;;;;;;;44.30;18.98;;;;;;;;;;6280717;28;20049;-59
2022/08/13 03:51:22;;;;;;;42.13;18.95;;;;;;;;;;6285239;28;20445;-60
2022/08/13 03:54:23;;;;;;;41.00;18.13;;;;;;;;;;6288766;28;20055;-59
2022/08/13 03:57:24;;;;;;;40.70;18.77;;;;;;;;;;6280861;28;20072;-59
2022/08/13 04:00:28;;;;;;;36.10;18.37;;;;;;;;;;6279349;28;20052;-60
2022/08/13 04:03:35;;;;;;;39.70;17.77;;;;;;;;;;6286827;28;20571;-59
2022/08/13 04:06:36;;;;;;;38.00;17.92;;;;;;;;;;6282695;28;20051;-59
2022/08/13 04:09:36;;;;;;;35.92;18.35;;;;;;;;;;6285811;28;20136;-60
2022/08/13 04:12:37;;;;;;;38.37;18.47;;;;;;;;;;6287303;28;20044;-59
2022/08/13 04:15:42;;;;;;;35.97;17.80;;;;;;;;;;6285403;28;20048;-60
2022/08/13 04:18:44;;;;;;;37.35;18.40;;;;;;;;;;6291836;28;20396;-59
2022/08/13 04:21:45;;;;;;;39.13;18.65;;;;;;;;;;6287590;28;20048;-60
2022/08/13 04:24:45;;;;;;;41.43;19.47;;;;;;;;;;6288985;28;20130;-59
2022/08/13 04:27:46;;;;;;;38.13;18.97;;;;;;;;;;6293637;28;20048;-60
2022/08/13 04:30:47;;;;;;;40.70;18.50;;;;;;;;;;6290426;28;20040;-60
2022/08/13 04:33:48;;;;;;;42.92;19.77;;;;;;;;;;6294881;28;20071;-60
2022/08/13 04:36:48;;;;;;;38.50;18.97;;;;;;;;;;6291190;28;20075;-59
2022/08/13 04:39:51;;;;;;;41.38;18.83;;;;;;;;;;6288847;28;20152;-59
2022/08/13 04:42:53;;;;;;;37.58;19.08;;;;;;;;;;6290990;28;20499;-59
2022/08/13 04:45:58;;;;;;;42.17;19.80;;;;;;;;;;6289041;28;20159;-60
2022/08/13 04:48:59;;;;;;;37.80;19.50;;;;;;;;;;6291842;28;20502;-60
2022/08/13 04:52:00;;;;;;;34.23;17.03;;;;;;;;;;6291630;28;20052;-59
2022/08/13 04:55:02;;;;;;;37.43;18.30;;;;;;;;;;6289037;28;20060;-59
2022/08/13 04:58:08;;;;;;;37.17;18.42;;;;;;;;;;6283056;28;20133;-59
2022/08/13 05:01:11;;;;;;;37.42;19.60;;;;;;;;;;6275644;28;20044;-60
2022/08/13 05:04:11;;;;;;;37.20;19.70;;;;;;;;;;6284911;28;20052;-59
2022/08/13 05:07:12;;;;;;;37.80;19.53;;;;;;;;;;6287429;28;20103;-59
2022/08/13 05:10:13;;;;;;;38.87;19.63;;;;;;;;;;6287325;28;20048;-59
2022/08/13 05:13:31;;;;;;;35.07;19.67;;;;;;;;;;6288709;28;20559;-59
2022/08/13 05:16:32;;;;;;;35.63;19.10;;;;;;;;;;6286347;28;20048;-59
2022/08/13 05:19:32;;;;;;;40.23;18.73;;;;;;;;;;6287125;28;20050;-59
2022/08/13 05:22:34;;;;;;;34.73;18.90;;;;;;;;;;6290378;28;20511;-60
2022/08/13 05:25:36;;;;;;;33.22;18.27;;;;;;;;;;6283351;28;20040;-59
2022/08/13 05:28:37;;;;;;;36.88;18.60;;;;;;;;;;6278994;28;20055;-60
2022/08/13 05:31:37;;;;;;;35.30;18.70;;;;;;;;;;6273882;28;20053;-59
2022/08/13 05:34:38;;;;;;;39.20;18.27;;;;;;;;;;6282129;28;20048;-60
2022/08/13 05:37:39;;;;;;;32.87;17.73;;;;;;;;;;6287184;28;20048;-59
2022/08/13 05:40:40;;;;;;;32.87;17.07;;;;;;;;;;6282760;28;20064;-59
2022/08/13 05:43:41;;;;;;;30.50;16.53;;;;;;;;;;6272861;28;20057;-60
2022/08/13 05:46:41;;;;;;;31.58;16.40;;;;;;;;;;6266853;28;20583;-59
2022/08/13 05:49:42;;;;;;;33.17;17.70;;;;;;;;;;6268047;28;20045;-60
2022/08/13 05:52:43;;;;;;;33.35;17.52;;;;;;;;;;6279809;28;20052;-60
2022/08/13 05:55:44;;;;;;;34.00;18.95;;;;;;;;;;6277520;28;20063;-59
2022/08/13 05:58:44;;;;;;;32.20;17.85;;;;;;;;;;6276786;28;20044;-60
2022/08/13 06:05:04;;;;;;;37.22;19.13;;;;;;;;;;6280254;28;20045;-60
2022/08/13 06:08:05;;;;;;;36.33;18.97;;;;;;;;;;6286439;28;20416;-60
2022/08/13 06:11:14;;;;;;;33.22;18.05;;;;;;;;;;6285025;28;20053;-60
2022/08/13 06:14:21;;;;;;;34.30;18.42;;;;;;;;;;6259056;28;20049;-60
2022/08/13 06:17:23;;;;;;;35.00;19.15;;;;;;;;;;6267022;28;20082;-59
2022/08/13 06:20:24;;;;;;;35.00;18.98;;;;;;;;;;6288240;28;20052;-59
2022/08/13 06:23:28;;;;;;;40.63;20.92;;;;;;;;;;6270431;28;20168;-59
2022/08/13 06:26:29;;;;;;;38.33;20.63;;;;;;;;;;6276639;28;20049;-59
2022/08/13 06:29:33;;;;;;;43.55;21.35;;;;;;;;;;6266253;28;20052;-60
2022/08/13 06:32:36;;;;;;;37.70;20.58;;;;;;;;;;6266817;28;20866;-60
2022/08/13 06:35:36;;;;;;;40.38;21.90;;;;;;;;;;6263066;28;20049;-59
2022/08/13 06:38:43;;;;;;;39.13;21.20;;;;;;;;;;6263486;28;20056;-60
2022/08/13 06:41:45;;;;;;;42.90;21.38;;;;;;;;;;6261337;28;20060;-59
2022/08/13 06:44:47;;;;;;;38.42;20.65;;;;;;;;;;6266406;28;20083;-59
2022/08/13 06:47:48;;;;;;;41.70;21.67;;;;;;;;;;6280101;28;20064;-59
2022/08/13 06:50:50;;;;;;;41.47;22.27;;;;;;;;;;6275753;28;20072;-59
2022/08/13 06:53:52;;;;;;;40.42;22.08;;;;;;;;;;6273578;28;20061;-60
2022/08/13 06:56:56;;;;;;;41.75;23.08;;;;;;;;;;6262136;28;20072;-59
2022/08/13 06:59:57;;;;;;;39.63;21.55;;;;;;;;;;6262893;28;20048;-60
2022/08/13 07:02:58;;;;;;;42.00;22.93;;;;;;;;;;6264301;28;20504;-59
2022/08/13 07:06:00;;;;;;;38.20;20.80;;;;;;;;;;6259168;28;20178;-60
2022/08/13 07:09:02;;;;;;;41.50;21.73;;;;;;;;;;6262054;28;20060;-59
2022/08/13 07:12:04;;;;;;;43.25;22.02;;;;;;;;;;6258740;28;20518;-59
2022/08/13 07:15:14;;;;;;;42.83;22.65;;;;;;;;;;6267705;28;20052;-60
2022/08/13 07:18:15;;;;;;;40.28;21.25;;;;;;;;;;6265683;28;20144;-59
2022/08/13 07:21:19;;;;;;;39.57;21.53;;;;;;;;;;6263172;28;20037;-59
2022/08/13 07:24:20;;;;;;;38.97;22.45;;;;;;;;;;6258611;28;20045;-60
2022/08/13 07:27:21;;;;;;;41.37;22.13;;;;;;;;;;6263907;28;20045;-59
2022/08/13 07:30:22;;;;;;;;;;;;;;;;;;6257522;28;20067;-59
2022/08/13 07:33:23;;;;;;;43.05;22.08;;;;;;;;;;6262433;28;19940;-60
2022/08/13 07:36:27;;;;;;;40.83;22.40;;;;;;;;;;6266017;28;20060;-60
2022/08/13 07:39:28;;;;;;;41.42;22.55;;;;;;;;;;6259823;28;20044;-60
2022/08/13 07:42:31;;;;;;;39.10;21.10;;;;;;;;;;6264531;28;20049;-59
2022/08/13 07:45:32;;;;;;;39.22;22.00;;;;;;;;;;6264366;28;20045;-60
2022/08/13 07:48:38;;;;;;;39.37;21.47;;;;;;;;;;6262984;28;20488;-60
2022/08/13 07:51:42;;;;;;;40.13;22.50;;;;;;;;;;6263964;28;20536;-60
2022/08/13 07:54:44;;;;;;;40.65;21.45;;;;;;;;;;6271581;28;20454;-60
2022/08/13 07:57:46;;;;;;;36.15;20.38;;;;;;;;;;6269414;28;20090;-59
2022/08/13 08:00:47;;;;;;;39.33;21.20;;;;;;;;;;6269138;28;20045;-60
2022/08/13 08:03:52;;;;;;;36.93;20.37;;;;;;;;;;6271912;28;20438;-60
2022/08/13 08:06:53;;;;;;;29.95;16.90;;;;;;;;;;6271651;28;20051;-60
2022/08/13 08:09:54;;;;;;;33.97;18.40;;;;;;;;;;6268045;28;20094;-60
2022/08/13 08:13:00;;;;;;;35.30;19.10;;;;;;;;;;6268181;28;20073;-59
2022/08/13 08:16:02;;;;;;;36.35;18.83;;;;;;;;;;6266139;28;20052;-60
2022/08/13 08:19:04;;;;;;;30.58;17.95;;;;;;;;;;6269358;28;20048;-60
2022/08/13 08:22:05;;;;;;;;;;;;;;;;;;6267851;28;20055;-60
2022/08/13 08:25:10;;;;;;;30.85;18.25;;;;;;;;;;6271548;28;21166;-59
2022/08/13 08:28:11;;;;;;;28.35;17.08;;;;;;;;;;6269457;28;20048;-60
2022/08/13 08:31:12;;;;;;;30.98;17.02;;;;;;;;;;6267822;28;20388;-59
2022/08/13 08:34:14;;;;;;;29.47;17.03;;;;;;;;;;6270888;28;20056;-60
2022/08/13 08:43:59;;;;;;;30.77;15.75;;;;;;;;;;6268047;28;19935;-59
2022/08/13 08:47:01;;;;;;;26.33;14.82;;;;;;;;;;6264905;28;20049;-59
2022/08/13 08:50:02;;;;;;;;;;;;;;;;;;6267103;28;20048;-60
2022/08/13 08:53:22;;;;;;;30.60;16.93;;;;;;;;;;6270039;28;20367;-60
2022/08/13 08:56:23;;;;;;;27.92;16.38;;;;;;;;;;6266934;28;20052;-60
2022/08/13 08:59:42;;;;;;;26.37;15.40;;;;;;;;;;6267236;28;20064;-60
2022/08/13 09:02:46;;;;;;;30.88;16.13;;;;;;;;;;6267907;28;20135;-60
2022/08/13 09:05:47;;;;;;;25.38;15.20;;;;;;;;;;6266371;28;20073;-60
2022/08/13 09:08:48;;;;;;;28.02;15.55;;;;;;;;;;6265654;28;20046;-60
2022/08/13 09:11:51;;;;;;;22.63;13.27;;;;;;;;;;6266144;28;20130;-60
2022/08/13 09:14:53;;;;;;;22.67;13.20;;;;;;;;;;6270925;28;20045;-59
2022/08/13 09:17:56;;;;;;;21.75;12.32;;;;;;;;;;6269801;28;20048;-60
2022/08/13 09:20:58;;;;;;;21.55;12.63;;;;;;;;;;6268667;28;20411;-59
2022/08/13 09:24:01;;;;;;;22.98;12.65;;;;;;;;;;6265793;28;20067;-60
2022/08/13 09:27:02;;;;;;;22.33;12.82;;;;;;;;;;6265827;28;20048;-59
2022/08/13 09:30:04;;;;;;;22.40;13.32;;;;;;;;;;6269751;28;22810;-59
2022/08/13 09:33:05;;;;;;;20.77;11.73;;;;;;;;;;6270147;28;20075;-60
2022/08/13 09:36:09;;;;;;;21.67;12.63;;;;;;;;;;6268533;28;20045;-59
2022/08/13 09:39:31;;;;;;;20.52;11.93;;;;;;;;;;6269724;28;20447;-59
2022/08/13 09:42:42;;;;;;;17.35;10.68;;;;;;;;;;6261898;28;20238;-59
2022/08/13 09:45:42;;;;;;;17.65;10.70;;;;;;;;;;6268176;28;20131;-59
2022/08/13 09:48:44;;;;;;;16.23;10.27;;;;;;;;;;6268337;28;20106;-59
2022/08/13 09:51:45;;;;;;;15.32;10.00;;;;;;;;;;6265499;28;20136;-59
2022/08/13 09:54:46;;;;;;;15.13;10.20;;;;;;;;;;6268306;28;23009;-59
2022/08/13 09:57:51;;;;;;;16.55;10.48;;;;;;;;;;6269221;28;20626;-59
2022/08/13 10:00:52;;;;;;;14.73;9.50;;;;;;;;;;6266564;28;20053;-59
2022/08/13 10:03:52;;;;;;;13.73;9.15;;;;;;;;;;6267362;28;20127;-62
2022/08/13 10:06:56;;;;;;;12.17;8.80;;;;;;;;;;6265018;28;20105;-57
2022/08/13 10:09:57;;;;;;;15.35;9.75;;;;;;;;;;6266194;28;20424;-59
2022/08/13 10:13:02;;;;;;;16.40;9.27;;;;;;;;;;6273447;28;20106;-59
2022/08/13 10:16:03;;;;;;;15.45;9.55;;;;;;;;;;6266854;28;20143;-57
2022/08/13 10:19:04;;;;;;;13.80;9.10;;;;;;;;;;6267363;28;20049;-60
2022/08/13 10:22:04;;;;;;;16.40;9.93;;;;;;;;;;6272343;28;20128;-58
2022/08/13 10:25:05;;;;;;;13.83;9.60;;;;;;;;;;6265303;28;20049;-63
2022/08/13 10:28:17;;;;;;;15.65;9.77;;;;;;;;;;6258392;28;20611;-57
2022/08/13 10:31:18;;;;;;;25.58;12.43;;;;;;;;;;6267350;28;20040;-63
2022/08/13 10:34:22;;;;;;;14.80;9.23;;;;;;;;;;6274809;28;20048;-66
2022/08/13 10:37:22;;;;;;;12.35;8.80;;;;;;;;;;6275670;28;20562;-63
2022/08/13 10:40:24;;;;;;;13.67;9.00;;;;;;;;;;6267298;28;20045;-62
2022/08/13 10:43:25;;;;;;;;;;;;;;;;;;6257250;28;20049;-60
2022/08/13 10:46:31;;;;;;;15.55;10.13;;;;;;;;;;6264152;28;20015;-66
2022/08/13 10:49:31;;;;;;;21.92;12.73;;;;;;;;;;6243292;28;20076;-62
2022/08/13 10:52:32;;;;;;;20.63;10.27;;;;;;;;;;6261711;28;20136;-62
2022/08/13 10:55:35;;;;;;;13.50;8.47;;;;;;;;;;6261756;28;20056;-68
2022/08/13 10:58:37;;;;;;;22.48;11.27;;;;;;;;;;6262568;28;20090;-66
2022/08/13 11:01:37;;;;;;;16.70;10.02;;;;;;;;;;6267154;28;20049;-61
2022/08/13 11:04:38;;;;;;;51.20;23.13;;;;;;;;;;6265236;28;20082;-63
2022/08/13 11:07:39;;;;;;;27.60;14.30;;;;;;;;;;6266897;28;20510;-60
2022/08/13 11:10:40;;;;;;;15.85;9.90;;;;;;;;;;6264113;28;20041;-61
2022/08/13 11:13:40;;;;;;;25.57;12.67;;;;;;;;;;6265028;28;20092;-64
2022/08/13 11:19:45;;;;;;;15.83;9.90;;;;;;;;;;6256989;28;20543;-61
2022/08/13 11:22:47;;;;;;;13.63;9.65;;;;;;;;;;6266422;28;20041;-62
2022/08/13 11:25:48;;;;;;;16.42;10.40;;;;;;;;;;6270209;28;20122;-61
2022/08/13 11:28:48;;;;;;;16.97;10.30;;;;;;;;;;6282297;28;20041;-61
2022/08/13 11:31:49;;;;;;;15.20;10.00;;;;;;;;;;6287068;28;20052;-61
2022/08/13 11:34:50;;;;;;;16.33;10.27;;;;;;;;;;6273243;28;20044;-61
2022/08/13 11:37:50;;;;;;;14.70;10.33;;;;;;;;;;6283796;28;20090;-62
2022/08/13 11:40:53;;;;;;;15.33;9.97;;;;;;;;;;6286127;28;20061;-61
2022/08/13 11:43:53;;;;;;;14.98;10.50;;;;;;;;;;6283678;28;20060;-61
2022/08/13 11:46:54;;;;;;;15.07;10.47;;;;;;;;;;6277417;28;20040;-61
2022/08/13 11:49:55;;;;;;;15.67;10.43;;;;;;;;;;6270931;28;20089;-61
2022/08/13 11:52:55;;;;;;;15.10;10.97;;;;;;;;;;6277989;28;20403;-62
2022/08/13 11:55:56;;;;;;;15.13;10.27;;;;;;;;;;6285338;28;20045;-61
2022/08/13 11:58:57;;;;;;;17.02;11.02;;;;;;;;;;6259011;28;20481;-61
2022/08/13 12:01:58;;;;;;;16.97;11.63;;;;;;;;;;6259126;28;20055;-61
2022/08/13 12:04:59;;;;;;;16.63;10.88;;;;;;;;;;6264874;28;20132;-61
2022/08/13 12:08:00;;;;;;;16.02;11.15;;;;;;;;;;6261506;28;20046;-61
2022/08/13 12:11:01;;;;;;;14.32;9.85;;;;;;;;;;6267932;28;20152;-62
2022/08/13 12:14:02;;;;;;;15.93;11.07;;;;;;;;;;6265273;28;20403;-61
2022/08/13 12:17:03;;;;;;;14.00;10.27;;;;;;;;;;6264787;28;20057;-62
2022/08/13 12:20:05;;;;;;;14.07;10.03;;;;;;;;;;6257727;28;20045;-61
2022/08/13 12:23:07;;;;;;;15.98;10.35;;;;;;;;;;6268151;28;20171;-61
2022/08/13 12:26:07;;;;;;;16.42;10.82;;;;;;;;;;6263578;28;20045;-62
2022/08/13 12:29:08;;;;;;;16.30;11.60;;;;;;;;;;6265934;28;20041;-62
2022/08/13 12:32:09;;;;;;;15.20;11.03;;;;;;;;;;6255305;28;20057;-61
2022/08/13 12:35:09;;;;;;;14.17;10.73;;;;;;;;;;6260080;28;20059;-62
2022/08/13 12:38:13;;;;;;;16.07;10.77;;;;;;;;;;6262343;28;20087;-62
2022/08/13 12:41:14;;;;;;;15.98;10.70;;;;;;;;;;6263899;28;20045;-63
2022/08/13 12:44:14;;;;;;;19.27;12.50;;;;;;;;;;6288130;28;20459;-63
2022/08/13 12:47:15;;;;;;;18.13;12.43;;;;;;;;;;6284698;28;20837;-62
2022/08/13 12:50:19;;;;;;;19.40;11.73;;;;;;;;;;6285954;28;20053;-62
2022/08/13 12:53:20;;;;;;;19.52;11.18;;;;;;;;;;6273619;28;20056;-64
2022/08/13 12:56:20;;;;;;;18.53;11.43;;;;;;;;;;6261605;28;20048;-65
2022/08/13 12:59:21;;;;;;;16.63;10.97;;;;;;;;;;6268020;28;20139;-65
2022/08/13 13:02:22;;;;;;;17.17;10.87;;;;;;;;;;6267924;28;20060;-63
2022/08/13 13:05:23;;;;;;;18.02;12.30;;;;;;;;;;6267885;28;20151;-65
2022/08/13 13:08:27;;;;;;;14.90;11.47;;;;;;;;;;6282145;28;20150;-62
2022/08/13 13:11:28;;;;;;;17.35;11.25;;;;;;;;;;6252529;28;20045;-61
2022/08/13 13:14:28;;;;;;;18.90;11.47;;;;;;;;;;6263326;28;20075;-62
2022/08/13 13:17:29;;;;;;;17.73;12.10;;;;;;;;;;6260887;28;20484;-61
2022/08/13 13:20:30;;;;;;;18.33;12.43;;;;;;;;;;6260353;28;20159;-63
2022/08/13 13:23:31;;;;;;;17.58;12.60;;;;;;;;;;6262529;28;20083;-60
2022/08/13 13:26:31;;;;;;;18.70;12.83;;;;;;;;;;6258499;28;20507;-60
2022/08/13 13:29:36;;;;;;;21.88;13.25;;;;;;;;;;6255928;28;20063;-61
2022/08/13 13:32:37;;;;;;;21.33;13.13;;;;;;;;;;6260264;28;20384;-62
2022/08/13 13:35:39;;;;;;;22.43;14.57;;;;;;;;;;6259632;28;20041;-65
2022/08/13 13:38:40;;;;;;;25.63;14.77;;;;;;;;;;6260527;28;20048;-65
2022/08/13 13:41:40;;;;;;;21.85;14.70;;;;;;;;;;6257194;28;20056;-62
2022/08/13 13:44:41;;;;;;;23.37;15.23;;;;;;;;;;6257188;28;20056;-62
2022/08/13 13:47:41;;;;;;;24.33;16.37;;;;;;;;;;6256359;28;20053;-60
2022/08/13 13:50:42;;;;;;;26.27;17.90;;;;;;;;;;6257324;28;20052;-61
2022/08/13 13:53:44;;;;;;;26.67;16.70;;;;;;;;;;6257600;28;20044;-63
2022/08/13 13:56:44;;;;;;;30.05;17.90;;;;;;;;;;6257823;28;20045;-64
2022/08/13 13:59:45;;;;;;;28.20;19.37;;;;;;;;;;6256339;28;20538;-71
2022/08/13 14:02:52;;;;;;;28.80;19.23;;;;;;;;;;6256193;28;20087;-62
2022/08/13 14:05:53;;;;;;;31.17;19.90;;;;;;;;;;6257464;28;20048;-61
2022/08/13 14:08:54;;;;;;;25.13;16.63;;;;;;;;;;6255899;28;20109;-61
2022/08/13 14:11:55;;;;;;;24.73;15.77;;;;;;;;;;6254867;28;20044;-65
2022/08/13 14:14:56;;;;;;;22.48;15.75;;;;;;;;;;6255986;28;21236;-61
2022/08/13 14:17:56;;;;;;;24.17;14.50;;;;;;;;;;6255780;28;20048;-61
2022/08/13 14:20:58;;;;;;;19.97;13.07;;;;;;;;;;6252871;28;20068;-62
2022/08/13 14:23:59;;;;;;;19.38;12.20;;;;;;;;;;6257197;28;20056;-61
2022/08/13 14:27:00;;;;;;;16.55;10.73;;;;;;;;;;6255695;28;20492;-62
2022/08/13 14:30:00;;;;;;;20.20;9.97;;;;;;;;;;6253997;28;20121;-62
2022/08/13 14:33:01;;;;;;;18.60;10.40;;;;;;;;;;6253611;28;20076;-62
2022/08/13 14:36:02;;;;;;;16.73;9.70;;;;;;;;;;6254383;28;20053;-62
2022/08/13 14:39:05;;;;;;;14.30;9.30;;;;;;;;;;6264727;28;20048;-62
2022/08/13 14:42:06;;;;;;;15.27;10.38;;;;;;;;;;6259170;28;20152;-61
2022/08/13 14:48:29;;;;;;;18.30;10.77;;;;;;;;;;6260091;28;20488;-61
2022/08/13 14:51:32;;;;;;;16.42;9.65;;;;;;;;;;6264536;28;20795;-62
2022/08/13 14:54:33;;;;;;;16.30;8.73;;;;;;;;;;6260673;28;20044;-63
2022/08/13 14:57:34;;;;;;;15.77;8.33;;;;;;;;;;6263677;28;20468;-61
2022/08/13 15:00:39;;;;;;;14.83;8.20;;;;;;;;;;6256742;28;20082;-62
2022/08/13 15:03:43;;;;;;;15.40;7.90;;;;;;;;;;6259747;28;20174;-63
2022/08/13 15:06:44;;;;;;;16.23;8.75;;;;;;;;;;6261534;28;20468;-63
2022/08/13 15:09:45;;;;;;;14.73;8.20;;;;;;;;;;6258058;28;20049;-63
2022/08/13 15:12:48;;;;;;;16.37;10.43;;;;;;;;;;6262128;28;20484;-63
2022/08/13 15:15:49;;;;;;;13.90;9.02;;;;;;;;;;6266484;28;20053;-62
2022/08/13 15:18:52;;;;;;;15.93;10.40;;;;;;;;;;6258257;28;20570;-62
2022/08/13 15:21:52;;;;;;;19.60;12.98;;;;;;;;;;6256796;28;20088;-61
2022/08/13 15:24:53;;;;;;;22.33;13.00;;;;;;;;;;6259380;28;20053;-62
2022/08/13 15:27:55;;;;;;;21.27;14.20;;;;;;;;;;6261473;28;20059;-62
2022/08/13 15:30:59;;;;;;;27.65;17.77;;;;;;;;;;6262209;28;20067;-60
2022/08/13 15:34:00;;;;;;;31.75;18.70;;;;;;;;;;6258058;28;20049;-60
2022/08/13 15:37:01;;;;;;;30.63;19.70;;;;;;;;;;6258805;28;20040;-59
2022/08/13 15:40:02;;;;;;;33.37;20.20;;;;;;;;;;6257396;28;20055;-61
2022/08/13 15:43:05;;;;;;;32.80;20.42;;;;;;;;;;6260904;28;20056;-62
2022/08/13 15:46:05;;;;;;;34.15;20.67;;;;;;;;;;6258832;28;20068;-60
2022/08/13 15:49:07;;;;;;;34.47;21.07;;;;;;;;;;6265003;28;20076;-61
2022/08/13 15:52:07;;;;;;;41.92;25.23;;;;;;;;;;6258918;28;20037;-60
2022/08/13 15:55:09;;;;;;;39.60;25.10;;;;;;;;;;6264550;28;20045;-61
2022/08/13 15:58:10;;;;;;;40.63;23.50;;;;;;;;;;6266846;28;20106;-62
2022/08/13 16:01:11;;;;;;;37.47;22.20;;;;;;;;;;6257370;28;20060;-60
2022/08/13 16:04:14;;;;;;;33.55;20.20;;;;;;;;;;6262395;28;20127;-60
2022/08/13 16:07:19;;;;;;;27.48;18.17;;;;;;;;;;6264594;28;20071;-61
2022/08/13 16:10:22;;;;;;;26.20;17.33;;;;;;;;;;6263710;28;20126;-62
2022/08/13 16:13:23;;;;;;;26.55;15.75;;;;;;;;;;6262700;28;20063;-62
2022/08/13 16:16:24;;;;;;;25.77;15.63;;;;;;;;;;6263907;28;20048;-62
2022/08/13 16:19:33;;;;;;;25.50;16.30;;;;;;;;;;6263666;28;20093;-60
2022/08/13 16:22:33;;;;;;;23.58;14.88;;;;;;;;;;6261014;28;20779;-61
2022/08/13 16:25:35;;;;;;;19.10;13.00;;;;;;;;;;6264812;28;20132;-60
2022/08/13 16:28:41;;;;;;;34.30;18.73;;;;;;;;;;6265707;28;20060;-61
2022/08/13 16:31:44;;;;;;;25.40;15.88;;;;;;;;;;6260814;28;20052;-60
2022/08/13 16:34:44;;;;;;;18.50;11.45;;;;;;;;;;6266613;28;20143;-62
2022/08/13 16:38:02;;;;;;;19.43;10.73;;;;;;;;;;6265860;28;20057;-62
2022/08/13 16:41:07;;;;;;;14.82;9.05;;;;;;;;;;6261803;28;20040;-60
2022/08/13 16:44:08;;;;;;;16.77;9.88;;;;;;;;;;6266498;28;20055;-61
2022/08/13 16:47:13;;;;;;;16.60;9.00;;;;;;;;;;6271041;28;20049;-60
2022/08/13 16:50:14;;;;;;;15.38;9.30;;;;;;;;;;6262281;28;20447;-60
2022/08/13 16:53:16;;;;;;;12.07;7.80;;;;;;;;;;6259729;28;20064;-60
2022/08/13 16:56:17;;;;;;;12.13;7.47;;;;;;;;;;6264227;28;20705;-61
2022/08/13 16:59:17;;;;;;;10.20;6.97;;;;;;;;;;6264039;28;20045;-61
2022/08/13 17:02:23;;;;;;;12.63;7.47;;;;;;;;;;6260658;28;20060;-61
2022/08/13 17:12:02;;;;;;;13.02;6.95;;;;;;;;;;6254554;28;20053;-61
2022/08/13 17:15:03;;;;;;;13.03;7.27;;;;;;;;;;6261475;28;20874;-62
2022/08/13 17:18:03;;;;;;;10.80;7.03;;;;;;;;;;6264695;28;20056;-62
2022/08/13 17:21:05;;;;;;;11.67;7.17;;;;;;;;;;6262425;28;20113;-63
2022/08/13 17:24:10;;;;;;;11.77;7.60;;;;;;;;;;6262409;28;20087;-68
2022/08/13 17:27:12;;;;;;;10.88;7.13;;;;;;;;;;6263048;28;20055;-60
2022/08/13 17:30:14;;;;;;;12.05;7.70;;;;;;;;;;6267231;28;20053;-62
2022/08/13 17:33:15;;;;;;;11.77;7.78;;;;;;;;;;6260352;28;20055;-64
2022/08/13 17:36:18;;;;;;;19.70;10.47;;;;;;;;;;6263508;28;20381;-65
2022/08/13 17:39:21;;;;;;;32.42;14.82;;;;;;;;;;6263516;28;20180;-62
2022/08/13 17:42:23;;;;;;;32.97;16.55;;;;;;;;;;6261999;28;20790;-66
2022/08/13 17:45:25;;;;;;;20.65;11.63;;;;;;;;;;6260604;28;20552;-63
2022/08/13 17:48:32;;;;;;;23.50;13.10;;;;;;;;;;6258236;28;20156;-67
2022/08/13 17:51:32;;;;;;;37.45;21.10;;;;;;;;;;6262825;28;20041;-65
2022/08/13 17:54:33;;;;;;;44.00;25.80;;;;;;;;;;6253657;28;20156;-70
2022/08/13 17:57:33;;;;;;;30.43;20.20;;;;;;;;;;6258055;28;20049;-60
2022/08/13 18:00:36;;;;;;;20.90;14.63;;;;;;;;;;6262538;28;20040;-61
2022/08/13 18:03:40;;;;;;;19.02;11.98;;;;;;;;;;6263748;28;20491;-60
2022/08/13 18:06:47;;;;;;;19.05;12.13;;;;;;;;;;6267562;28;20053;-63
2022/08/13 18:09:51;;;;;;;14.70;8.95;;;;;;;;;;6260772;28;20110;-63
2022/08/13 18:12:51;;;;;;;12.85;9.13;;;;;;;;;;6259336;28;21410;-62
2022/08/13 18:15:52;;;;;;;20.80;15.47;;;;;;;;;;6258456;28;20130;-65